< < Back
Terminal Aerodrome Forecast


Current Version              Previous Versions:   1  2  3  4  5  6  7  8  9  

Terminal Aerodrome Forecast

771
FTUS42 KMLB 240236 AAB
TAFMCO
TAF AMD
KMCO 240236Z 2403/2424 VRB02KT P6SM SCT250
     FM241600 12006KT P6SM SCT050 SCT250
     FM242100 10009KT P6SM VCSH SCT045 SCT250=



Latest METAR

555
SAUS70 KWBC 241600 RRG
MTRMCO
METAR KMCO 241553Z 09007KT 10SM SCT027 SCT250 32/21 A3006 RMK AO2 SLP177
T03220211


USA.gov is the U.S. government's official web portal to all federal, state and local government web resources and services.